createdAt,value
2018-03-04T00:01:17.324Z,20.15
2018-03-04T00:03:45.200Z,24.05
2018-03-04T00:06:12.908Z,14.32
2018-03-04T00:08:40.587Z,21.30
2018-03-04T00:11:08.235Z,19.67
2018-03-04T00:13:35.935Z,25.45
2018-03-04T00:16:03.587Z,25.42
2018-03-04T00:18:31.250Z,23.38
2018-03-04T00:20:58.930Z,22.85
2018-03-04T00:23:27.516Z,25.83
2018-03-04T00:25:55.179Z,24.02
2018-03-04T00:28:22.961Z,20.85
2018-03-04T00:30:50.678Z,25.95
2018-03-04T00:33:18.456Z,18.90
2018-03-04T00:35:46.304Z,24.30
2018-03-04T00:38:13.958Z,25.37
2018-03-04T00:40:41.638Z,26.17
2018-03-04T00:43:09.268Z,18.20
2018-03-04T00:45:36.942Z,38.03
2018-03-04T00:48:04.729Z,24.73
2018-03-04T00:50:32.421Z,26.80
2018-03-04T00:53:00.047Z,24.00
2018-03-04T00:55:27.726Z,23.45
2018-03-04T00:57:55.366Z,22.52
2018-03-04T01:00:23.054Z,22.75
2018-03-04T01:02:50.866Z,17.15
2018-03-04T01:05:18.563Z,22.45
2018-03-04T01:07:46.307Z,24.40
2018-03-04T01:10:14.002Z,28.25
2018-03-04T01:12:41.654Z,25.62
2018-03-04T01:15:09.405Z,29.15
2018-03-04T01:17:37.042Z,27.73
2018-03-04T01:20:04.726Z,25.37
2018-03-04T01:22:32.372Z,27.42
2018-03-04T01:25:00.119Z,20.67
2018-03-04T01:27:27.869Z,25.98
2018-03-04T01:29:55.541Z,24.33
2018-03-04T01:32:23.184Z,35.38
2018-03-04T01:34:50.858Z,20.60
2018-03-04T01:37:18.512Z,20.98
2018-03-04T01:39:46.316Z,21.42
2018-03-04T01:42:13.974Z,26.40
2018-03-04T01:44:41.636Z,22.35
2018-03-04T01:47:09.264Z,23.15
2018-03-04T01:49:37.053Z,29.63
2018-03-04T01:52:04.684Z,27.55
2018-03-04T01:54:32.422Z,36.13
2018-03-04T01:57:00.051Z,19.20
2018-03-04T01:59:27.690Z,43.13
2018-03-04T02:01:55.359Z,23.80
2018-03-04T02:04:23.923Z,25.85
2018-03-04T02:06:51.596Z,12.90
2018-03-04T02:09:19.225Z,17.85
2018-03-04T02:11:46.904Z,20.55
2018-03-04T02:14:14.546Z,23.38
2018-03-04T02:16:42.226Z,22.90
2018-03-04T02:19:09.911Z,25.37
2018-03-04T02:21:37.586Z,29.42
2018-03-04T02:24:05.230Z,19.05
2018-03-04T02:26:32.906Z,16.90
2018-03-04T02:29:00.547Z,14.02
2018-03-04T02:31:28.404Z,19.65
2018-03-04T02:33:56.029Z,20.90
2018-03-04T02:36:23.713Z,19.85
2018-03-04T02:38:51.346Z,22.05
2018-03-04T02:41:19.019Z,20.10
2018-03-04T02:43:46.735Z,30.02
2018-03-04T02:46:14.431Z,18.15
2018-03-04T02:48:42.516Z,19.83
2018-03-04T02:51:10.203Z,21.33
2018-03-04T02:53:37.850Z,30.60
2018-03-04T02:56:05.534Z,25.10
2018-03-04T02:58:33.246Z,25.50
2018-03-04T03:01:00.925Z,25.20
2018-03-04T03:03:28.578Z,22.10
2018-03-04T03:05:56.443Z,29.23
2018-03-04T03:08:24.185Z,27.27
2018-03-04T03:10:51.862Z,22.45
2018-03-04T03:13:19.505Z,28.12
2018-03-04T03:15:47.261Z,26.83
2018-03-04T03:18:14.905Z,30.62
2018-03-04T03:20:42.584Z,36.50
2018-03-04T03:23:10.213Z,30.20
2018-03-04T03:25:37.895Z,31.02
2018-03-04T03:28:05.645Z,29.33
2018-03-04T03:30:33.296Z,39.38
2018-03-04T03:33:01.048Z,17.62
2018-03-04T03:35:28.796Z,31.10
2018-03-04T03:37:56.473Z,34.05
2018-03-04T03:40:24.119Z,32.80
2018-03-04T03:42:51.809Z,34.42
2018-03-04T03:45:19.451Z,22.55
2018-03-04T03:47:47.263Z,33.70
2018-03-04T03:50:14.891Z,20.77
2018-03-04T03:52:42.572Z,27.83
2018-03-04T03:55:10.206Z,19.92
2018-03-04T03:57:37.886Z,17.45
2018-03-04T04:00:05.654Z,20.15
2018-03-04T04:02:33.338Z,24.75
2018-03-04T04:05:00.970Z,25.10
2018-03-04T04:07:28.809Z,16.90
2018-03-04T04:09:56.455Z,19.30
2018-03-04T04:12:24.140Z,25.65
2018-03-04T04:14:51.820Z,21.40
2018-03-04T04:17:19.509Z,30.55
2018-03-04T04:19:47.273Z,27.65
2018-03-04T04:22:14.954Z,26.12
2018-03-04T04:24:42.584Z,17.35
2018-03-04T04:27:10.265Z,28.05
2018-03-04T04:29:37.898Z,22.02
2018-03-04T04:32:05.576Z,32.47
2018-03-04T04:34:33.275Z,25.83
2018-03-04T04:37:00.945Z,15.10
2018-03-04T04:39:28.596Z,26.60
2018-03-04T04:41:56.276Z,25.17
2018-03-04T04:44:23.996Z,18.10
2018-03-04T04:46:51.838Z,31.42
2018-03-04T04:49:19.478Z,29.00
2018-03-04T04:51:47.159Z,34.35
2018-03-04T04:54:14.804Z,24.15
2018-03-04T04:56:42.489Z,38.65
2018-03-04T04:59:10.132Z,21.02
2018-03-04T05:01:37.833Z,27.55
2018-03-04T05:04:05.482Z,17.80
2018-03-04T05:06:33.168Z,21.37
2018-03-04T05:09:00.806Z,21.98
2018-03-04T05:11:28.520Z,28.10
2018-03-04T05:13:56.219Z,32.25
2018-03-04T05:16:23.862Z,30.10
2018-03-04T05:18:51.752Z,29.25
2018-03-04T05:21:19.389Z,21.00
2018-03-04T05:23:47.078Z,28.90
2018-03-04T05:26:14.721Z,30.85
2018-03-04T05:28:42.414Z,21.95
2018-03-04T05:31:10.178Z,25.73
2018-03-04T05:33:37.856Z,20.02
2018-03-04T05:36:05.513Z,28.00
2018-03-04T05:38:33.206Z,29.60
2018-03-04T05:41:00.846Z,29.25
2018-03-04T05:43:28.590Z,31.08
2018-03-04T05:45:56.294Z,30.55
2018-03-04T05:48:23.936Z,27.48
2018-03-04T05:50:51.621Z,28.38
2018-03-04T05:53:19.252Z,25.10
2018-03-04T05:55:47.964Z,23.30
2018-03-04T05:58:15.607Z,28.98
2018-03-04T06:00:43.314Z,28.65
2018-03-04T06:03:10.970Z,25.48
2018-03-04T06:05:38.657Z,29.27
2018-03-04T06:08:06.439Z,21.70
2018-03-04T06:10:34.170Z,35.03
2018-03-04T06:13:01.825Z,23.90
2018-03-04T06:15:29.470Z,36.22
2018-03-04T06:17:57.144Z,29.92
2018-03-04T06:20:24.854Z,28.50
2018-03-04T06:22:52.536Z,23.95
2018-03-04T06:25:20.178Z,34.28
2018-03-04T06:27:47.880Z,19.17
2018-03-04T06:30:15.519Z,25.95
2018-03-04T06:32:43.333Z,43.22
2018-03-04T06:35:10.970Z,30.05
2018-03-04T06:37:38.678Z,31.90
2018-03-04T06:40:06.309Z,19.02
2018-03-04T06:42:33.964Z,41.55
2018-03-04T06:45:01.663Z,34.03
2018-03-04T06:47:29.327Z,27.80
2018-03-04T06:49:57.046Z,27.62
2018-03-04T06:52:24.692Z,23.40
2018-03-04T06:54:52.375Z,29.40
2018-03-04T06:57:20.012Z,22.37
2018-03-04T06:59:47.859Z,25.37
2018-03-04T07:02:15.516Z,28.55
2018-03-04T07:04:43.208Z,27.02
2018-03-04T07:07:10.840Z,30.17
2018-03-04T07:09:38.525Z,20.25
2018-03-04T07:12:06.166Z,28.85
2018-03-04T07:14:33.875Z,26.20
2018-03-04T07:17:01.518Z,34.05
2018-03-04T07:19:29.252Z,24.55
2018-03-04T07:21:56.926Z,23.85
2018-03-04T07:24:24.738Z,31.05
2018-03-04T07:26:52.421Z,23.58
2018-03-04T07:29:20.081Z,28.10
2018-03-04T07:31:48.809Z,31.75
2018-03-04T07:34:16.464Z,26.42
2018-03-04T07:36:44.145Z,23.33
2018-03-04T07:39:11.788Z,29.77
2018-03-04T07:41:39.482Z,26.02
2018-03-04T07:44:07.287Z,29.75
2018-03-04T07:46:34.970Z,32.97
2018-03-04T07:49:02.621Z,22.30
2018-03-04T07:51:30.328Z,28.83
2018-03-04T07:53:57.980Z,47.67
2018-03-04T07:56:25.615Z,24.85
2018-03-04T07:58:53.344Z,23.92
2018-03-04T08:01:21.007Z,27.23
2018-03-04T08:03:48.679Z,22.67
2018-03-04T08:06:16.316Z,36.53
2018-03-04T08:08:44.011Z,32.90
2018-03-04T08:11:11.650Z,22.77
2018-03-04T08:13:39.336Z,38.75
2018-03-04T08:16:06.977Z,30.23
2018-03-04T08:18:34.699Z,27.13
2018-03-04T08:21:02.344Z,34.17
2018-03-04T08:23:30.014Z,20.85
2018-03-04T08:26:09.416Z,26.12
2018-03-04T08:28:37.183Z,25.25
2018-03-04T08:31:04.830Z,32.65
2018-03-04T08:33:32.489Z,27.73
2018-03-04T08:36:00.173Z,33.35
2018-03-04T08:38:27.826Z,38.03
2018-03-04T08:40:55.511Z,29.52
2018-03-04T08:43:23.159Z,30.73
2018-03-04T08:45:50.844Z,40.50
2018-03-04T08:48:18.498Z,32.83
2018-03-04T08:50:46.244Z,27.60
2018-03-04T08:53:13.861Z,41.78
2018-03-04T08:55:41.536Z,29.05
2018-03-04T08:58:09.179Z,31.40
2018-03-04T09:00:36.868Z,43.28
2018-03-04T09:03:04.521Z,34.90
2018-03-04T09:05:32.218Z,43.13
2018-03-04T09:07:59.864Z,33.65
2018-03-04T09:10:27.561Z,50.38
2018-03-04T09:12:55.219Z,32.45
2018-03-04T09:15:22.909Z,30.48
2018-03-04T09:17:50.541Z,34.72
2018-03-04T09:20:18.231Z,30.62
2018-03-04T09:22:45.917Z,33.33
2018-03-04T09:25:13.613Z,40.47
2018-03-04T09:27:41.290Z,39.27
2018-03-04T09:30:08.928Z,32.90
2018-03-04T09:32:36.587Z,40.57
2018-03-04T09:35:04.236Z,33.53
2018-03-04T09:37:31.916Z,24.70
2018-03-04T09:39:59.558Z,27.98
2018-03-04T09:42:27.261Z,33.97
2018-03-04T09:44:54.912Z,30.00
2018-03-04T09:47:22.591Z,31.53
2018-03-04T09:49:50.229Z,32.13
2018-03-04T09:52:17.936Z,33.23
2018-03-04T09:54:45.595Z,25.03
2018-03-04T09:57:13.286Z,35.15
2018-03-04T09:59:40.923Z,38.30
2018-03-04T10:02:08.628Z,31.93
2018-03-04T10:04:36.276Z,41.10
2018-03-04T10:07:03.966Z,40.90
2018-03-04T10:09:31.604Z,31.07
2018-03-04T10:11:59.286Z,37.17
2018-03-04T10:14:26.938Z,40.23
2018-03-04T10:16:54.571Z,48.27
2018-03-04T10:19:22.258Z,28.67
2018-03-04T10:21:49.904Z,45.13
2018-03-04T10:24:17.563Z,34.50
2018-03-04T10:26:45.200Z,39.60
2018-03-04T10:29:12.874Z,34.87
2018-03-04T10:31:40.518Z,43.50
2018-03-04T10:34:08.209Z,45.70
2018-03-04T10:36:35.834Z,38.70
2018-03-04T10:39:03.503Z,36.43
2018-03-04T10:41:31.184Z,41.20
2018-03-04T10:43:58.870Z,43.20
2018-03-04T10:46:26.548Z,38.73
2018-03-04T10:48:54.366Z,37.83
2018-03-04T10:51:22.013Z,35.93
2018-03-04T10:53:49.724Z,41.20
2018-03-04T10:56:17.356Z,37.53
2018-03-04T10:58:45.035Z,36.23
2018-03-04T11:01:18.363Z,36.93
2018-03-04T11:03:46.068Z,34.43
2018-03-04T11:06:13.727Z,35.00
2018-03-04T11:08:41.424Z,47.50
2018-03-04T11:11:09.086Z,33.93
2018-03-04T11:13:36.859Z,33.53
2018-03-04T11:16:04.508Z,39.73
2018-03-04T11:18:32.153Z,44.10
2018-03-04T11:20:59.864Z,33.70
2018-03-04T11:23:27.512Z,50.60
2018-03-04T11:25:56.332Z,41.07
2018-03-04T11:28:24.005Z,34.50
2018-03-04T11:30:51.718Z,38.53
2018-03-04T11:33:19.390Z,38.77
2018-03-04T11:35:47.100Z,50.23
2018-03-04T11:38:14.765Z,31.73
2018-03-04T11:40:42.462Z,44.80
2018-03-04T11:43:10.126Z,48.60
2018-03-04T11:45:37.854Z,43.90
2018-03-04T11:48:05.553Z,42.93
2018-03-04T11:50:33.267Z,42.83
2018-03-04T11:53:00.891Z,37.63
2018-03-04T11:55:28.627Z,44.03
2018-03-04T11:57:56.401Z,42.20
2018-03-04T12:00:24.141Z,38.50
2018-03-04T12:02:51.812Z,54.80
2018-03-04T12:05:19.635Z,38.57
2018-03-04T12:07:47.312Z,43.70
2018-03-04T12:10:15.028Z,37.83
2018-03-04T12:12:42.708Z,44.57
2018-03-04T12:15:10.419Z,52.90
2018-03-04T12:17:38.149Z,41.63
2018-03-04T12:20:05.798Z,35.23
2018-03-04T12:22:33.510Z,38.97
2018-03-04T12:25:01.191Z,47.70
2018-03-04T12:27:28.902Z,41.60
2018-03-04T12:29:56.620Z,41.70
2018-03-04T12:32:24.337Z,43.20
2018-03-04T12:34:52.190Z,48.13
2018-03-04T12:37:19.890Z,50.50
2018-03-04T12:39:47.561Z,42.67
2018-03-04T12:42:15.454Z,39.83
2018-03-04T12:44:43.181Z,48.90
2018-03-04T12:47:10.889Z,50.63
2018-03-04T12:49:38.561Z,41.27
2018-03-04T12:52:06.256Z,36.33
2018-03-04T12:54:33.899Z,34.27
2018-03-04T12:57:01.607Z,47.67
2018-03-04T12:59:29.414Z,49.17
2018-03-04T13:01:57.187Z,43.53
2018-03-04T13:04:24.911Z,54.83
2018-03-04T13:06:52.570Z,52.23
2018-03-04T13:09:20.315Z,47.20
2018-03-04T13:11:48.021Z,45.23
2018-03-04T13:14:15.774Z,44.13
2018-03-04T13:16:43.446Z,45.07
2018-03-04T13:19:11.171Z,54.97
2018-03-04T13:21:38.845Z,61.40
2018-03-04T13:24:06.610Z,47.20
2018-03-04T13:26:34.247Z,62.53
2018-03-04T13:29:02.043Z,39.67
2018-03-04T13:31:29.774Z,45.37
2018-03-04T13:33:57.571Z,54.33
2018-03-04T13:36:25.343Z,48.10
2018-03-04T13:38:53.047Z,64.07
2018-03-04T13:41:20.725Z,46.43
2018-03-04T13:43:48.467Z,45.60
2018-03-04T13:46:16.158Z,50.13
2018-03-04T13:48:43.838Z,47.47
2018-03-04T13:51:11.626Z,45.90
2018-03-04T13:53:39.346Z,47.00
2018-03-04T13:56:07.146Z,45.87
2018-03-04T13:58:34.868Z,54.27
2018-03-04T14:01:02.700Z,44.67
2018-03-04T14:03:30.491Z,50.20
2018-03-04T14:05:58.290Z,51.87
2018-03-04T14:08:25.959Z,44.43
2018-03-04T14:10:53.653Z,50.13
2018-03-04T14:13:21.283Z,44.27
2018-03-04T14:15:49.003Z,62.47
2018-03-04T14:18:16.661Z,43.53
2018-03-04T14:20:44.356Z,58.13
2018-03-04T14:23:11.992Z,42.40
2018-03-04T14:25:39.675Z,48.80
2018-03-04T14:28:07.322Z,53.60
2018-03-04T14:30:35.070Z,62.40
2018-03-04T14:33:02.734Z,44.80
2018-03-04T14:35:30.409Z,65.00
2018-03-04T14:37:58.114Z,42.70
2018-03-04T14:40:25.786Z,50.27
2018-03-04T14:42:53.511Z,67.60
2018-03-04T14:45:21.283Z,55.13
2018-03-04T14:47:48.990Z,63.53
2018-03-04T14:50:16.734Z,53.20
2018-03-04T14:52:47.315Z,58.27
2018-03-04T14:55:14.949Z,64.60
2018-03-04T14:57:42.644Z,57.93
2018-03-04T15:00:10.302Z,55.03
2018-03-04T15:02:37.990Z,60.30
2018-03-04T15:05:05.720Z,54.80
2018-03-04T15:07:33.410Z,56.20
2018-03-04T15:10:01.082Z,56.80
2018-03-04T15:12:28.782Z,76.63
2018-03-04T15:14:56.503Z,70.90
2018-03-04T15:17:24.224Z,58.33
2018-03-04T15:19:51.887Z,66.70
2018-03-04T15:22:19.537Z,58.00
2018-03-04T15:24:47.236Z,46.00
2018-03-04T15:27:14.946Z,58.80
2018-03-04T15:29:42.728Z,57.40
2018-03-04T15:32:10.376Z,46.77
2018-03-04T15:34:38.100Z,52.93
2018-03-04T15:37:05.803Z,49.10
2018-03-04T15:39:33.534Z,60.90
2018-03-04T15:42:01.247Z,56.93
2018-03-04T15:44:28.966Z,45.37
2018-03-04T15:46:56.681Z,43.83
2018-03-04T15:49:24.378Z,51.67
2018-03-04T15:51:52.050Z,39.67
2018-03-04T15:54:19.744Z,62.47
2018-03-04T15:56:47.440Z,46.07
2018-03-04T15:59:15.176Z,49.50
2018-03-04T16:01:42.868Z,58.27
2018-03-04T16:04:10.511Z,52.90
2018-03-04T16:06:38.221Z,54.37
2018-03-04T16:09:05.854Z,53.30
2018-03-04T16:11:33.567Z,48.77
2018-03-04T16:14:01.190Z,66.67
2018-03-04T16:16:28.901Z,58.50
2018-03-04T16:18:56.623Z,60.37
2018-03-04T16:21:24.407Z,58.37
2018-03-04T16:23:52.126Z,49.60
2018-03-04T16:26:19.849Z,61.80
2018-03-04T16:28:47.584Z,51.90
2018-03-04T16:31:15.322Z,55.57
2018-03-04T16:33:43.045Z,52.00
2018-03-04T16:36:10.792Z,51.80
2018-03-04T16:38:38.566Z,65.13
2018-03-04T16:41:06.300Z,53.27
2018-03-04T16:43:34.055Z,51.27
2018-03-04T16:46:01.740Z,54.03
2018-03-04T16:48:29.498Z,77.53
2018-03-04T16:50:57.170Z,60.83
2018-03-04T16:53:24.970Z,73.17
2018-03-04T16:55:52.680Z,55.70
2018-03-04T16:58:20.432Z,46.10
2018-03-04T17:00:48.353Z,72.33
2018-03-04T17:03:16.134Z,62.83
2018-03-04T17:05:43.857Z,64.47
2018-03-04T17:08:11.570Z,69.60
2018-03-04T17:10:39.312Z,69.93
2018-03-04T17:13:07.103Z,64.77
2018-03-04T17:15:34.776Z,44.00
2018-03-04T17:18:02.482Z,59.53
2018-03-04T17:20:30.280Z,50.20
2018-03-04T17:22:57.936Z,43.13
2018-03-04T17:25:26.592Z,46.80
2018-03-04T17:27:54.296Z,61.27
2018-03-04T17:30:21.979Z,63.60
2018-03-04T17:32:49.663Z,65.67
2018-03-04T17:35:17.294Z,47.67
2018-03-04T17:37:46.209Z,52.37
2018-03-04T17:40:13.855Z,58.17
2018-03-04T17:42:41.512Z,54.17
2018-03-04T17:45:09.201Z,48.03
2018-03-04T17:47:36.897Z,61.63
2018-03-04T17:50:04.546Z,61.30
2018-03-04T17:52:32.271Z,49.47
2018-03-04T17:54:59.932Z,53.60
2018-03-04T17:57:27.615Z,61.00
2018-03-04T17:59:55.266Z,61.73
2018-03-04T18:02:22.962Z,57.27
2018-03-04T18:04:50.629Z,61.97
2018-03-04T18:07:18.319Z,65.63
2018-03-04T18:09:45.978Z,49.87
2018-03-04T18:12:13.701Z,67.70
2018-03-04T18:14:41.362Z,59.57
2018-03-04T18:17:09.214Z,46.77
2018-03-04T18:19:36.896Z,56.50
2018-03-04T18:22:04.646Z,42.60
2018-03-04T18:24:32.303Z,62.03
2018-03-04T18:27:00.083Z,59.57
2018-03-04T18:29:27.783Z,56.93
2018-03-04T18:31:55.462Z,68.53
2018-03-04T18:34:23.179Z,64.90
2018-03-04T18:36:50.863Z,60.73
2018-03-04T18:39:18.567Z,66.97
2018-03-04T18:41:46.368Z,64.50
2018-03-04T18:44:14.089Z,67.10
2018-03-04T18:46:41.747Z,56.10
2018-03-04T18:49:09.492Z,58.03
2018-03-04T18:51:37.150Z,51.97
2018-03-04T18:54:04.887Z,71.67
2018-03-04T18:56:32.615Z,64.70
2018-03-04T18:59:00.318Z,68.67
2018-03-04T19:01:28.011Z,56.63
2018-03-04T19:03:55.653Z,70.13
2018-03-04T19:06:23.367Z,66.63
2018-03-04T19:08:51.082Z,60.70
2018-03-04T19:11:18.792Z,59.63
2018-03-04T19:13:46.463Z,53.80
2018-03-04T19:16:14.195Z,66.50
2018-03-04T19:18:41.850Z,69.30
2018-03-04T19:21:09.570Z,66.93
2018-03-04T19:23:37.242Z,64.80
2018-03-04T19:26:05.007Z,61.23
2018-03-04T19:28:32.750Z,75.50
2018-03-04T19:31:00.511Z,67.40
2018-03-04T19:33:28.190Z,64.70
2018-03-04T19:35:55.929Z,61.50
2018-03-04T19:38:23.604Z,51.03
2018-03-04T19:40:51.280Z,62.23
2018-03-04T19:43:18.975Z,62.60
2018-03-04T19:45:46.663Z,71.57
2018-03-04T19:48:14.420Z,62.50
2018-03-04T19:50:42.144Z,66.20
2018-03-04T19:53:09.885Z,68.17
2018-03-04T19:55:37.591Z,57.40
2018-03-04T19:58:05.332Z,51.47
2018-03-04T20:00:33.011Z,51.37
2018-03-04T20:03:00.722Z,64.43
2018-03-04T20:05:28.441Z,70.43
2018-03-04T20:07:56.146Z,61.57
2018-03-04T20:10:23.856Z,68.17
2018-03-04T20:12:51.543Z,56.30
2018-03-04T20:15:19.202Z,61.70
2018-03-04T20:17:46.902Z,62.63
2018-03-04T20:20:14.615Z,60.00
2018-03-04T20:22:42.300Z,70.40
2018-03-04T20:25:10.000Z,61.37
2018-03-04T20:27:37.673Z,55.37
2018-03-04T20:30:05.394Z,55.93
2018-03-04T20:32:33.064Z,57.33
2018-03-04T20:35:00.794Z,56.60
2018-03-04T20:37:28.491Z,63.90
2018-03-04T20:39:56.172Z,56.17
2018-03-04T20:42:23.877Z,60.73
2018-03-04T20:44:51.570Z,57.80
2018-03-04T20:47:19.242Z,60.20
2018-03-04T20:49:46.950Z,63.17
2018-03-04T20:52:14.582Z,56.13
2018-03-04T20:54:42.253Z,61.13
2018-03-04T20:57:09.938Z,75.97
2018-03-04T20:59:37.621Z,58.73
2018-03-04T21:02:05.298Z,62.17
2018-03-04T21:04:32.976Z,62.00
2018-03-04T21:07:00.694Z,57.10
2018-03-04T21:09:28.357Z,71.97
2018-03-04T21:11:56.029Z,57.33
2018-03-04T21:14:23.786Z,60.10
2018-03-04T21:16:51.451Z,59.90
2018-03-04T21:19:19.201Z,65.10
2018-03-04T21:21:46.887Z,57.57
2018-03-04T21:24:14.659Z,48.80
2018-03-04T21:26:42.295Z,52.60
2018-03-04T21:29:10.018Z,64.33
2018-03-04T21:31:37.680Z,59.17
2018-03-04T21:34:05.423Z,63.60
2018-03-04T21:36:33.098Z,52.70
2018-03-04T21:39:00.823Z,54.03
2018-03-04T21:41:28.502Z,58.87
2018-03-04T21:43:56.251Z,51.17
2018-03-04T21:46:23.989Z,47.43
2018-03-04T21:48:51.642Z,48.13
2018-03-04T21:51:19.344Z,54.80
2018-03-04T21:53:47.022Z,50.13
2018-03-04T21:56:14.725Z,55.23
2018-03-04T21:58:43.235Z,59.50
2018-03-04T22:01:10.988Z,53.07
2018-03-04T22:03:38.650Z,62.93
2018-03-04T22:06:06.405Z,54.17
2018-03-04T22:08:34.079Z,54.30
2018-03-04T22:11:01.823Z,49.47
2018-03-04T22:13:29.521Z,91.63
2018-03-04T22:15:57.222Z,87.30
2018-03-04T22:18:24.947Z,51.80
2018-03-04T22:20:52.635Z,129.13
2018-03-04T22:23:20.290Z,61.23
2018-03-04T22:25:47.979Z,57.30
2018-03-04T22:28:15.642Z,50.00
2018-03-04T22:30:43.332Z,49.93
2018-03-04T22:33:11.015Z,58.80
2018-03-04T22:35:38.694Z,63.10
2018-03-04T22:38:06.333Z,56.67
2018-03-04T22:40:34.094Z,50.17
2018-03-04T22:43:01.766Z,49.10
2018-03-04T22:45:29.435Z,41.63
2018-03-04T22:47:57.202Z,53.07
2018-03-04T22:50:24.908Z,51.03
2018-03-04T22:52:52.546Z,46.43
2018-03-04T22:55:20.226Z,59.33
2018-03-04T22:57:47.862Z,48.60
2018-03-04T23:00:15.552Z,49.70
2018-03-04T23:02:43.210Z,53.80
2018-03-04T23:05:10.891Z,46.63
2018-03-04T23:07:38.585Z,45.03
2018-03-04T23:10:06.311Z,56.90
2018-03-04T23:12:33.944Z,60.30
2018-03-04T23:15:01.676Z,47.60
2018-03-04T23:17:29.422Z,52.27
2018-03-04T23:19:57.061Z,54.47
2018-03-04T23:22:24.792Z,62.93
2018-03-04T23:24:52.431Z,54.97
2018-03-04T23:27:20.099Z,53.97
2018-03-04T23:29:47.742Z,50.63
2018-03-04T23:32:15.413Z,45.93
2018-03-04T23:34:43.094Z,43.93
2018-03-04T23:37:10.762Z,50.90
2018-03-04T23:39:38.400Z,49.90
2018-03-04T23:42:06.130Z,46.67
2018-03-04T23:44:33.760Z,65.47
2018-03-04T23:47:01.450Z,34.33
2018-03-04T23:49:29.081Z,44.40
2018-03-04T23:51:56.758Z,49.27
2018-03-04T23:54:24.402Z,46.57
2018-03-04T23:56:52.078Z,52.27
2018-03-04T23:59:19.709Z,52.87
